Time;durP1;ratioP1;P1;durP2;ratioP2;P2;SDS_P1;SDS_P2;PMS_P1;PMS_P2;Temp;Humidity;BMP_temperature;BMP_pressure;BME280_temperature;BME280_humidity;BME280_pressure;Samples;Min_cycle;Max_cycle;Signal;HPM_P1;HPM_P2
2023/05/04 00:04:07;;;;;;;49.67;21.80;;;6.70;1.00;;;;;;10055010;29;20196;-77
2023/05/04 00:09:28;;;;;;;53.40;22.80;;;6.60;1.00;;;;;;10086108;29;20216;-77
2023/05/04 00:14:50;;;;;;;52.37;23.27;;;6.60;1.00;;;;;;10080761;29;20204;-77
2023/05/04 00:20:12;;;;;;;57.60;24.70;;;6.60;1.00;;;;;;10079736;29;20231;-75
2023/05/04 00:25:33;;;;;;;56.77;24.70;;;6.50;1.00;;;;;;10080400;29;20287;-78
2023/05/04 00:30:55;;;;;;;66.07;26.63;;;6.40;1.00;;;;;;10066175;29;20567;-78
2023/05/04 00:36:16;;;;;;;59.13;26.23;;;6.40;1.00;;;;;;10065157;29;20581;-73
2023/05/04 00:41:37;;;;;;;50.47;22.53;;;6.40;1.00;;;;;;10079054;29;20229;-77
2023/05/04 00:46:59;;;;;;;43.53;20.07;;;6.20;1.00;;;;;;10079076;29;20194;-76
2023/05/04 00:52:20;;;;;;;49.13;20.63;;;6.10;1.00;;;;;;10078821;29;20297;-77
2023/05/04 00:57:41;;;;;;;38.53;18.90;;;6.10;1.00;;;;;;10077918;29;20292;-78
2023/05/04 01:03:02;;;;;;;38.40;18.43;;;6.10;1.00;;;;;;10065563;29;20221;-78
2023/05/04 01:08:30;;;;;;;33.50;17.90;;;6.00;1.00;;;;;;10077877;29;20312;-74
2023/05/04 01:13:52;;;;;;;42.50;18.40;;;6.00;1.00;;;;;;10078362;29;20220;-78
2023/05/04 01:19:15;;;;;;;41.03;19.70;;;6.00;1.00;;;;;;10040991;29;20226;-73
2023/05/04 01:24:36;;;;;;;44.63;21.03;;;5.90;1.00;;;;;;10076742;29;20275;-74
2023/05/04 01:30:13;;;;;;;48.90;22.73;;;5.90;1.00;;;;;;10077917;29;20236;-74
2023/05/04 01:35:37;;;;;;;31.10;16.63;;;5.90;1.00;;;;;;10076279;29;20220;-76
2023/05/04 01:40:58;;;;;;;26.93;14.20;;;5.80;1.00;;;;;;10064551;29;20301;-76
2023/05/04 01:46:19;;;;;;;31.10;15.67;;;5.80;1.00;;;;;;10077891;29;20201;-75
2023/05/04 01:51:40;;;;;;;43.90;21.07;;;5.70;1.00;;;;;;10076268;29;20432;-79
2023/05/04 01:57:01;;;;;;;63.47;31.33;;;5.60;1.00;;;;;;10086046;29;20437;-74
2023/05/04 02:02:23;;;;;;;53.40;25.63;;;5.40;1.00;;;;;;10079320;29;20224;-79
2023/05/04 02:07:45;;;;;;;43.13;18.50;;;5.40;17.60;;;;;;10063416;29;20214;-80
2023/05/04 02:13:06;;;;;;;31.60;15.77;;;5.40;87.50;;;;;;10085548;29;20225;-79
2023/05/04 02:18:27;;;;;;;37.10;15.60;;;5.30;99.90;;;;;;10084605;29;20235;-74
2023/05/04 02:23:48;;;;;;;32.17;17.37;;;5.30;85.10;;;;;;10082020;29;20530;-78
2023/05/04 02:29:09;;;;;;;38.67;17.43;;;5.30;1.00;;;;;;10084639;29;20245;-75
2023/05/04 02:34:34;;;;;;;31.67;16.37;;;5.30;24.10;;;;;;10056341;29;20277;-75
2023/05/04 02:39:54;;;;;;;25.97;14.57;;;5.20;99.90;;;;;;10083013;29;20248;-76
2023/05/04 02:45:17;;;;;;;26.27;14.70;;;5.20;13.00;;;;;;10083294;29;20200;-77
2023/05/04 02:50:38;;;;;;;29.97;14.20;;;5.10;1.00;;;;;;10081752;29;20215;-75
2023/05/04 02:55:59;;;;;;;23.03;13.30;;;5.10;35.50;;;;;;10044800;29;20250;-76
2023/05/04 03:01:20;;;;;;;27.77;13.20;;;5.10;99.90;;;;;;10052933;29;20519;-76
2023/05/04 03:06:41;;;;;;;22.70;13.63;;;5.10;99.90;;;;;;10082412;29;20270;-77
2023/05/04 03:12:03;;;;;;;21.67;12.87;;;5.00;99.90;;;;;;10082278;29;20200;-80
2023/05/04 03:17:25;;;;;;;32.47;16.80;;;5.00;99.90;;;;;;10081069;29;20212;-76
2023/05/04 03:22:48;;;;;;;25.50;15.63;;;5.10;99.90;;;;;;10080866;29;20200;-80
2023/05/04 03:28:09;;;;;;;25.97;14.87;;;5.00;1.00;;;;;;10081576;29;20240;-77
2023/05/04 03:33:30;;;;;;;28.57;15.00;;;4.90;1.00;;;;;;10080680;29;20208;-74
2023/05/04 03:38:51;;;;;;;29.50;15.33;;;4.90;1.00;;;;;;10068070;29;20239;-75
2023/05/04 03:44:13;;;;;;;27.03;15.60;;;4.80;73.40;;;;;;10067764;29;20268;-78
2023/05/04 03:49:34;;;;;;;30.90;16.10;;;4.80;99.90;;;;;;10080846;29;20303;-76
2023/05/04 03:54:55;;;;;;;28.87;15.63;;;4.80;1.00;;;;;;10080593;29;20335;-78
2023/05/04 04:00:17;;;;;;;29.07;13.63;;;4.80;1.00;;;;;;10067570;29;20251;-79
2023/05/04 04:05:46;;;;;;;24.90;14.27;;;4.80;1.00;;;;;;10079934;29;20495;-77
2023/05/04 04:11:07;;;;;;;24.03;13.77;;;4.80;1.00;;;;;;10080236;29;20204;-76
2023/05/04 04:16:28;;;;;;;25.23;13.13;;;4.80;1.00;;;;;;10079011;29;20280;-76
2023/05/04 04:21:49;;;;;;;22.77;12.20;;;5.00;1.00;;;;;;10080652;29;20302;-74
2023/05/04 04:27:10;;;;;;;23.33;12.33;;;5.00;1.00;;;;;;10080549;29;20222;-78
2023/05/04 04:32:32;;;;;;;30.23;13.83;;;5.10;99.90;;;;;;10078945;29;20555;-78
2023/05/04 04:37:54;;;;;;;43.43;22.07;;;5.20;1.00;;;;;;10079172;29;20229;-74
2023/05/04 04:43:15;;;;;;;44.43;23.10;;;5.20;1.00;;;;;;10065878;29;20520;-74
2023/05/04 04:48:36;;;;;;;38.17;19.40;;;5.30;1.00;;;;;;10078721;29;20208;-76
2023/05/04 04:53:57;;;;;;;33.33;17.27;;;5.50;1.00;;;;;;10066921;29;20424;-73
2023/05/04 04:59:19;;;;;;;30.33;16.60;;;5.60;1.00;;;;;;10050163;29;20226;-76
2023/05/04 05:04:40;;;;;;;39.73;16.77;;;5.80;1.00;;;;;;10077609;29;20200;-78
2023/05/04 05:10:02;;;;;;;29.73;14.77;;;6.10;99.90;;;;;;10064492;29;20242;-74
2023/05/04 05:15:23;;;;;;;23.67;13.73;;;6.30;99.90;;;;;;10054628;29;20253;-79
2023/05/04 05:20:44;;;;;;;21.70;12.53;;;6.70;1.00;;;;;;10078256;29;20591;-79
2023/05/04 05:26:05;;;;;;;15.43;7.03;;;7.00;99.90;;;;;;10046134;29;20196;-78
2023/05/04 05:31:26;;;;;;;11.43;3.90;;;7.40;38.70;;;;;;10077354;29;20293;-76
2023/05/04 05:36:47;;;;;;;8.20;2.80;;;7.70;1.00;;;;;;10076308;29;20252;-76
2023/05/04 05:42:10;;;;;;;7.20;2.37;;;7.90;1.00;;;;;;10077790;29;20250;-76
2023/05/04 05:47:30;;;;;;;6.23;2.57;;;8.20;1.00;;;;;;10085583;29;20205;-80
2023/05/04 05:52:51;;;;;;;10.90;3.30;;;8.40;99.90;;;;;;10085078;29;20205;-79
2023/05/04 05:58:12;;;;;;;15.23;4.33;;;8.80;13.00;;;;;;10084510;29;20223;-80
2023/05/04 06:03:34;;;;;;;11.40;5.10;;;9.20;1.00;;;;;;10084798;29;20253;-76
2023/05/04 06:08:55;;;;;;;53.37;25.57;;;9.50;54.10;;;;;;10085129;29;20212;-78
2023/05/04 06:14:16;;;;;;;28.77;13.83;;;9.80;45.10;;;;;;10084921;29;20212;-78
2023/05/04 06:19:38;;;;;;;10.50;3.23;;;10.30;41.00;;;;;;10083858;29;20233;-74
2023/05/04 06:24:59;;;;;;;10.07;3.20;;;10.80;33.70;;;;;;10083897;29;20383;-80
2023/05/04 06:30:23;;;;;;;14.37;3.73;;;11.30;29.30;;;;;;10084191;29;20461;-77
2023/05/04 06:35:44;;;;;;;9.30;2.57;;;12.00;25.20;;;;;;10083632;29;20206;-74
2023/05/04 06:41:05;;;;;;;6.43;2.63;;;12.50;21.20;;;;;;10083958;29;20234;-79
2023/05/04 06:46:26;;;;;;;4.93;1.60;;;13.30;19.10;;;;;;10083822;29;20195;-77
2023/05/04 06:51:48;;;;;;;10.60;1.80;;;13.60;15.20;;;;;;10082025;29;20218;-77
2023/05/04 06:57:10;;;;;;;6.82;1.48;;;14.00;14.40;;;;;;10082608;29;20456;-79
2023/05/04 07:02:31;;;;;;;9.63;2.60;;;14.50;11.90;;;;;;10082822;29;20538;-76
2023/05/04 07:07:52;;;;;;;4.70;1.88;;;15.00;9.80;;;;;;10083018;29;20209;-76
2023/05/04 07:13:13;;;;;;;5.63;1.73;;;15.30;8.90;;;;;;10083062;29;20444;-78
2023/05/04 07:18:34;;;;;;;9.82;2.33;;;15.80;7.40;;;;;;10078537;29;20241;-80
2023/05/04 07:23:55;;;;;;;10.10;1.98;;;16.20;6.70;;;;;;10083144;29;20281;-75
2023/05/04 07:29:17;;;;;;;6.40;2.17;;;16.80;5.40;;;;;;10090968;29;20236;-82
2023/05/04 07:34:38;;;;;;;3.83;1.48;;;17.00;5.50;;;;;;10106823;29;20232;-77
2023/05/04 07:40:06;;;;;;;3.75;1.65;;;17.30;4.80;;;;;;10117435;29;20229;-79
2023/05/04 07:45:27;;;;;;;9.48;1.85;;;17.90;3.80;;;;;;10114885;29;20430;-81
2023/05/04 07:50:49;;;;;;;6.82;1.55;;;18.10;2.60;;;;;;10112857;29;20243;-78
2023/05/04 07:56:11;;;;;;;8.13;1.35;;;17.90;2.30;;;;;;10113907;29;20234;-81
2023/05/04 08:01:32;;;;;;;4.10;1.38;;;17.90;1.90;;;;;;10091579;29;20458;-81
2023/05/04 08:06:54;;;;;;;12.15;1.98;;;18.30;1.00;;;;;;10105891;29;20255;-78
2023/05/04 08:12:15;;;;;;;4.03;1.50;;;18.80;1.00;;;;;;10101972;29;20284;-81
2023/05/04 08:17:38;;;;;;;7.03;1.70;;;18.90;1.00;;;;;;10122030;29;20205;-77
2023/05/04 08:23:01;;;;;;;3.53;1.55;;;19.40;1.00;;;;;;10137664;29;20209;-81
2023/05/04 08:28:22;;;;;;;5.47;1.80;;;19.70;1.00;;;;;;10132332;29;20236;-79
2023/05/04 08:33:45;;;;;;;4.38;1.42;;;19.80;1.00;;;;;;10112787;29;20209;-75
2023/05/04 08:39:06;;;;;;;4.75;1.73;;;20.40;1.00;;;;;;10113696;29;20257;-80
2023/05/04 08:44:29;;;;;;;5.75;1.85;;;20.40;1.00;;;;;;10112164;29;20206;-79
2023/05/04 08:49:58;;;;;;;4.07;1.13;;;20.40;1.00;;;;;;10111168;29;20285;-84
2023/05/04 08:55:19;;;;;;;4.25;1.65;;;20.40;1.00;;;;;;10113180;29;20209;-77
2023/05/04 09:00:42;;;;;;;5.32;1.42;;;19.80;1.00;;;;;;10112985;29;20225;-77
2023/05/04 09:06:05;;;;;;;17.08;1.90;;;20.60;1.00;;;;;;10110670;29;20209;-81
2023/05/04 09:11:27;;;;;;;5.65;1.83;;;21.10;1.00;;;;;;10111170;29;20277;-75
2023/05/04 09:16:48;;;;;;;8.00;1.40;;;21.70;1.00;;;;;;10110500;29;20206;-82
2023/05/04 09:22:16;;;;;;;3.33;1.55;;;22.10;1.00;;;;;;10118871;29;20263;-79
2023/05/04 09:27:40;;;;;;;3.95;1.10;;;22.10;1.00;;;;;;10119178;29;20205;-78
2023/05/04 09:33:02;;;;;;;12.18;3.00;;;22.30;1.00;;;;;;10118613;29;20485;-79
2023/05/04 09:38:27;;;;;;;7.63;3.53;;;22.30;1.00;;;;;;10118489;29;20266;-79
2023/05/04 09:43:48;;;;;;;2.58;1.55;;;22.20;1.00;;;;;;10119329;29;20240;-74
2023/05/04 09:49:10;;;;;;;4.70;2.38;;;;;;;;;;10119234;29;20405;-77
2023/05/04 09:54:37;;;;;;;4.15;1.23;;;22.90;1.00;;;;;;10112004;29;20218;-77
2023/05/04 09:59:59;;;;;;;4.20;1.40;;;23.40;1.00;;;;;;10094639;29;20301;-81
2023/05/04 10:05:21;;;;;;;3.95;1.35;;;23.20;1.00;;;;;;10116040;29;20433;-76
2023/05/04 10:10:42;;;;;;;4.47;1.23;;;23.20;1.00;;;;;;10114737;29;20202;-82
2023/05/04 10:16:41;;;;;;;2.50;1.08;;;23.00;1.00;;;;;;10101560;29;20201;-79
2023/05/04 10:22:10;;;;;;;2.83;1.30;;;22.90;1.00;;;;;;10130584;29;20241;-79
2023/05/04 10:27:42;;;;;;;3.58;1.20;;;22.50;1.00;;;;;;10091430;29;20737;-78
2023/05/04 10:33:03;;;;;;;6.50;1.75;;;22.50;1.00;;;;;;10129268;29;20221;-82
2023/05/04 10:38:50;;;;;;;1.98;1.20;;;22.90;1.00;;;;;;10108484;29;20214;-82
2023/05/04 10:44:12;;;;;;;5.07;2.00;;;23.30;1.00;;;;;;10079322;29;20207;-80
2023/05/04 10:49:34;;;;;;;5.68;2.08;;;23.50;1.00;;;;;;10066895;29;20199;-81
2023/05/04 10:55:00;;;;;;;2.88;1.42;;;23.60;1.00;;;;;;10106562;29;20411;-82
2023/05/04 11:00:23;;;;;;;3.78;1.25;;;23.90;1.00;;;;;;10116485;29;20233;-75
2023/05/04 11:05:54;;;;;;;5.53;1.45;;;23.80;1.00;;;;;;10116346;29;20217;-82
2023/05/04 11:11:15;;;;;;;5.43;1.70;;;23.50;1.00;;;;;;10116419;29;20226;-76
2023/05/04 11:16:36;;;;;;;5.53;1.55;;;23.30;1.00;;;;;;10113779;29;20198;-80
2023/05/04 11:21:59;;;;;;;4.88;1.63;;;23.20;1.00;;;;;;10101786;29;20312;-78
2023/05/04 11:27:27;;;;;;;2.58;1.45;;;23.10;1.00;;;;;;10115688;29;20496;-80
2023/05/04 11:32:52;;;;;;;2.38;1.25;;;23.00;1.00;;;;;;10080998;29;20760;-80
2023/05/04 11:38:20;;;;;;;6.93;1.98;;;22.80;1.00;;;;;;10116010;29;20226;-79
2023/05/04 11:43:43;;;;;;;5.65;2.55;;;23.00;1.00;;;;;;10114913;29;20560;-77
2023/05/04 11:49:05;;;;;;;3.13;1.42;;;22.60;1.00;;;;;;10115155;29;20218;-78
2023/05/04 11:54:26;;;;;;;6.75;3.20;;;22.30;1.00;;;;;;10081694;29;20213;-77
2023/05/04 11:59:50;;;;;;;5.88;2.45;;;22.20;1.00;;;;;;10126306;29;20317;-79
2023/05/04 12:05:12;;;;;;;5.63;1.80;;;22.30;1.00;;;;;;10115344;29;20206;-83
2023/05/04 12:10:34;;;;;;;3.47;1.20;;;22.40;1.00;;;;;;10114536;29;20403;-80
2023/05/04 12:15:55;;;;;;;10.38;3.90;;;22.30;1.00;;;;;;10111710;29;20238;-80
2023/05/04 12:21:18;;;;;;;4.80;2.42;;;22.20;1.00;;;;;;10114046;29;20221;-80
2023/05/04 12:26:41;;;;;;;5.63;1.40;;;21.90;1.00;;;;;;10112997;29;20507;-85
2023/05/04 12:32:02;;;;;;;4.32;1.83;;;21.90;1.00;;;;;;10112222;29;20285;-83
2023/05/04 12:37:23;;;;;;;3.58;1.38;;;21.60;1.00;;;;;;10104478;29;20286;-79
2023/05/04 12:42:46;;;;;;;3.60;2.33;;;21.50;1.00;;;;;;10113501;29;20624;-83
2023/05/04 12:48:07;;;;;;;6.13;1.33;;;21.40;1.00;;;;;;10113300;29;20463;-80
2023/05/04 12:53:30;;;;;;;3.63;1.27;;;21.30;1.00;;;;;;10112107;29;20272;-79
2023/05/04 12:58:52;;;;;;;5.35;1.30;;;21.00;1.00;;;;;;10111999;29;20290;-82
2023/05/04 13:04:13;;;;;;;2.30;1.15;;;20.60;1.00;;;;;;10111942;29;20212;-77
2023/05/04 13:09:34;;;;;;;2.97;2.10;;;20.70;1.00;;;;;;10112230;29;20194;-81
2023/05/04 13:14:56;;;;;;;9.00;2.45;;;21.00;1.00;;;;;;10110803;29;20209;-78
2023/05/04 13:20:18;;;;;;;5.30;1.73;;;21.00;1.00;;;;;;10112631;29;20496;-79
2023/05/04 13:25:39;;;;;;;1.95;1.23;;;20.90;1.00;;;;;;10111027;29;20221;-80
2023/05/04 13:31:00;;;;;;;2.75;1.67;;;20.80;1.00;;;;;;10072851;29;20238;-80
2023/05/04 13:36:21;;;;;;;4.07;1.85;;;20.70;1.00;;;;;;10059080;29;20428;-78
2023/05/04 13:41:42;;;;;;;5.72;1.45;;;20.40;1.00;;;;;;10094022;29;20237;-77
2023/05/04 13:47:03;;;;;;;2.58;1.25;;;20.30;1.00;;;;;;10112613;29;20212;-78
2023/05/04 13:52:26;;;;;;;6.47;1.27;;;20.10;1.00;;;;;;10112275;29;20202;-78
2023/05/04 13:57:47;;;;;;;3.22;1.20;;;20.00;1.00;;;;;;10107559;29;20285;-79
2023/05/04 14:03:08;;;;;;;3.00;1.08;;;20.00;1.00;;;;;;10126361;29;20720;-77
2023/05/04 14:08:29;;;;;;;2.33;1.00;;;19.80;1.00;;;;;;10118387;29;20257;-82
2023/05/04 14:13:54;;;;;;;5.57;3.80;;;19.90;1.00;;;;;;10104102;29;20213;-82
2023/05/04 14:19:15;;;;;;;5.72;2.60;;;20.00;1.00;;;;;;10131324;29;20237;-78
2023/05/04 14:24:37;;;;;;;4.65;2.45;;;19.90;1.00;;;;;;10136921;29;20511;-80
2023/05/04 14:29:58;;;;;;;3.97;1.52;;;19.80;1.00;;;;;;10138100;29;20256;-82
2023/05/04 14:35:19;;;;;;;3.17;1.45;;;19.80;1.00;;;;;;10118465;29;20209;-81
2023/05/04 14:40:40;;;;;;;3.10;0.88;;;19.60;1.00;;;;;;10136371;29;20229;-81
2023/05/04 14:46:01;;;;;;;1.45;0.80;;;19.40;1.00;;;;;;10129848;29;20213;-80
2023/05/04 14:51:25;;;;;;;4.05;1.02;;;19.20;1.00;;;;;;10117577;29;20205;-78
2023/05/04 14:56:46;;;;;;;1.58;1.00;;;19.10;1.00;;;;;;10131163;29;20271;-83
2023/05/04 15:02:08;;;;;;;7.35;2.70;;;19.10;1.00;;;;;;10124963;29;20237;-78
2023/05/04 15:07:29;;;;;;;7.43;4.07;;;18.60;1.00;;;;;;10108501;29;20197;-77
2023/05/04 15:12:51;;;;;;;6.05;2.47;;;18.30;1.00;;;;;;10120573;29;20194;-78
2023/05/04 15:18:13;;;;;;;4.93;2.65;;;18.00;1.00;;;;;;10118407;29;20233;-78
2023/05/04 15:23:33;;;;;;;3.33;2.58;;;17.60;1.00;;;;;;10082495;29;20249;-79
2023/05/04 15:28:56;;;;;;;10.88;2.95;;;17.50;1.00;;;;;;10081038;29;20232;-78
2023/05/04 15:34:17;;;;;;;8.57;2.60;;;17.10;1.00;;;;;;10112808;29;20258;-78
2023/05/04 15:39:38;;;;;;;5.60;2.55;;;16.90;1.60;;;;;;10118031;29;20229;-79
2023/05/04 15:45:00;;;;;;;8.80;3.95;;;16.80;2.00;;;;;;10120288;29;20280;-79
2023/05/04 15:50:21;;;;;;;9.05;3.42;;;16.60;2.10;;;;;;10121397;29;20237;-79
2023/05/04 15:55:42;;;;;;;12.93;3.83;;;16.50;2.30;;;;;;10121324;29;20199;-77
2023/05/04 16:01:06;;;;;;;8.60;3.70;;;16.40;2.10;;;;;;10116035;29;20232;-77
2023/05/04 16:06:28;;;;;;;11.93;3.53;;;16.10;1.40;;;;;;10119650;29;20231;-79
2023/05/04 16:11:49;;;;;;;5.63;3.47;;;15.90;1.30;;;;;;10122481;29;20268;-77
2023/05/04 16:17:11;;;;;;;13.32;5.00;;;15.80;1.70;;;;;;10119898;29;20235;-76
2023/05/04 16:22:33;;;;;;;9.13;3.63;;;15.80;1.60;;;;;;10120985;29;20386;-77
2023/05/04 16:27:54;;;;;;;8.68;3.92;;;15.50;1.40;;;;;;10131497;29;20303;-79
2023/05/04 16:33:15;;;;;;;7.30;3.80;;;15.40;1.60;;;;;;10081866;29;20200;-78
2023/05/04 16:38:36;;;;;;;9.13;2.72;;;15.10;1.50;;;;;;10080722;29;20381;-78
2023/05/04 16:43:58;;;;;;;5.40;2.42;;;15.10;1.50;;;;;;10078386;29;20298;-79
2023/05/04 16:49:20;;;;;;;5.95;2.30;;;15.10;1.00;;;;;;10118817;29;20200;-79
2023/05/04 16:54:41;;;;;;;5.65;2.20;;;15.00;1.00;;;;;;10117532;29;20203;-77
2023/05/04 17:00:03;;;;;;;8.63;3.08;;;14.90;1.00;;;;;;10116342;29;20310;-76
2023/05/04 17:05:24;;;;;;;5.60;2.10;;;14.80;1.00;;;;;;10117944;29;20240;-76
2023/05/04 17:10:45;;;;;;;7.78;2.90;;;14.50;1.00;;;;;;10116978;29;20208;-77
2023/05/04 17:16:06;;;;;;;5.20;2.88;;;14.40;1.00;;;;;;10117084;29;20228;-79
2023/05/04 17:21:27;;;;;;;10.27;4.38;;;14.30;1.00;;;;;;10117597;29;20468;-76
2023/05/04 17:26:49;;;;;;;9.38;5.40;;;14.10;1.00;;;;;;10117122;29;20202;-78
2023/05/04 17:32:09;;;;;;;5.88;3.75;;;14.10;1.00;;;;;;10079130;29;20252;-79
2023/05/04 17:37:30;;;;;;;5.70;3.60;;;14.10;1.40;;;;;;10078800;29;20192;-80
2023/05/04 17:42:51;;;;;;;8.70;3.25;;;14.00;1.20;;;;;;10097095;29;20527;-79
2023/05/04 17:48:12;;;;;;;8.02;4.35;;;13.80;1.00;;;;;;10124847;29;20271;-77
2023/05/04 17:53:33;;;;;;;12.13;4.55;;;13.60;1.00;;;;;;10125052;29;20274;-76
2023/05/04 17:58:54;;;;;;;12.73;6.00;;;13.40;1.00;;;;;;10123400;29;20510;-76
2023/05/04 18:04:15;;;;;;;23.48;7.95;;;13.20;1.00;;;;;;10123198;29;20548;-75
2023/05/04 18:09:36;;;;;;;16.92;6.00;;;13.20;1.10;;;;;;10123201;29;20255;-75
2023/05/04 18:14:57;;;;;;;7.78;3.55;;;12.80;1.00;;;;;;10123927;29;20211;-75
2023/05/04 18:20:18;;;;;;;7.63;3.38;;;12.80;1.00;;;;;;10122592;29;20469;-75
2023/05/04 18:25:39;;;;;;;7.32;3.50;;;12.60;1.00;;;;;;10122774;29;20288;-75
2023/05/04 18:31:00;;;;;;;6.93;2.85;;;12.40;1.00;;;;;;10122149;29;20234;-75
2023/05/04 18:36:21;;;;;;;3.08;1.90;;;12.30;1.00;;;;;;10123145;29;20207;-75
2023/05/04 18:41:42;;;;;;;3.05;2.10;;;12.20;1.00;;;;;;10122451;29;20315;-75
2023/05/04 18:47:09;;;;;;;4.72;2.53;;;12.00;1.00;;;;;;10121900;29;20190;-75
2023/05/04 18:52:31;;;;;;;5.63;2.75;;;11.80;1.00;;;;;;10121837;29;20209;-75
2023/05/04 18:57:52;;;;;;;9.33;3.10;;;11.60;2.00;;;;;;10121530;29;20207;-75
2023/05/04 19:03:13;;;;;;;10.10;4.28;;;11.50;3.10;;;;;;10122087;29;20264;-75
2023/05/04 19:08:34;;;;;;;6.93;3.92;;;11.60;3.60;;;;;;10121626;29;20510;-75
2023/05/04 19:13:55;;;;;;;10.07;3.50;;;11.60;4.20;;;;;;10122046;29;20354;-75
2023/05/04 19:19:16;;;;;;;6.00;2.65;;;11.50;5.10;;;;;;10118796;29;20505;-78
2023/05/04 19:24:37;;;;;;;7.13;3.80;;;11.50;5.60;;;;;;10120645;29;20241;-75
2023/05/04 19:29:58;;;;;;;5.57;3.13;;;11.50;5.80;;;;;;10120833;29;20508;-76
2023/05/04 19:35:19;;;;;;;8.40;3.20;;;11.50;6.10;;;;;;10121279;29;20195;-76
2023/05/04 19:40:40;;;;;;;10.30;3.80;;;11.40;6.60;;;;;;10119906;29;20520;-78
2023/05/04 19:46:02;;;;;;;10.18;4.13;;;11.40;7.00;;;;;;10120777;29;20224;-78
2023/05/04 19:51:23;;;;;;;13.50;4.53;;;11.40;7.50;;;;;;10106189;29;20228;-78
2023/05/04 19:56:45;;;;;;;12.85;4.88;;;11.30;8.20;;;;;;10119792;29;20256;-78
2023/05/04 20:02:07;;;;;;;22.03;13.27;;;11.10;9.10;;;;;;10119565;29;20248;-79
2023/05/04 20:07:28;;;;;;;10.70;5.20;;;11.00;10.30;;;;;;10125198;29;20371;-76
2023/05/04 20:12:49;;;;;;;7.37;3.77;;;10.80;11.20;;;;;;10127849;29;20260;-77
2023/05/04 20:18:10;;;;;;;16.85;5.25;;;10.60;12.00;;;;;;10118071;29;20257;-78
2023/05/04 20:23:31;;;;;;;10.73;3.97;;;10.50;11.90;;;;;;10118658;29;20292;-75
2023/05/04 20:28:52;;;;;;;6.80;2.90;;;10.70;12.10;;;;;;10117985;29;20245;-78
2023/05/04 20:34:13;;;;;;;6.50;3.53;;;10.50;11.90;;;;;;10119094;29;20193;-78
2023/05/04 20:39:35;;;;;;;8.70;4.10;;;10.50;12.10;;;;;;10118087;29;20216;-78
2023/05/04 20:44:56;;;;;;;17.17;5.88;;;10.40;12.50;;;;;;10118842;29;20211;-78
2023/05/04 20:50:17;;;;;;;12.07;4.87;;;10.40;12.90;;;;;;10117387;29;20262;-78
2023/05/04 20:55:39;;;;;;;10.80;4.47;;;10.30;13.30;;;;;;10117619;29;20201;-79
2023/05/04 21:01:03;;;;;;;9.50;3.47;;;10.20;14.10;;;;;;10118294;29;20255;-78
2023/05/04 21:06:24;;;;;;;9.37;2.80;;;10.10;14.50;;;;;;10118085;29;20245;-79
2023/05/04 21:11:46;;;;;;;11.10;3.30;;;10.00;15.10;;;;;;10117437;29;20208;-79
2023/05/04 21:17:07;;;;;;;6.70;2.97;;;9.80;15.90;;;;;;10117748;29;20247;-78
2023/05/04 21:22:28;;;;;;;6.17;3.00;;;9.60;17.80;;;;;;10116306;29;20235;-78
2023/05/04 21:27:49;;;;;;;8.40;3.43;;;9.70;20.90;;;;;;10117737;29;20204;-76
2023/05/04 21:33:10;;;;;;;8.17;4.13;;;9.50;99.90;;;;;;10117820;29;20208;-78
2023/05/04 21:38:31;;;;;;;10.57;4.90;;;9.50;99.90;;;;;;10116887;29;20205;-78
2023/05/04 21:43:52;;;;;;;14.43;6.37;;;9.40;1.00;;;;;;10117510;29;20227;-78
2023/05/04 21:49:13;;;;;;;10.27;3.20;;;9.50;1.00;;;;;;10117621;29;20276;-78
2023/05/04 21:54:35;;;;;;;8.80;4.53;;;9.50;99.90;;;;;;10116572;29;20207;-78
2023/05/04 21:59:56;;;;;;;10.60;4.83;;;9.50;99.90;;;;;;10116160;29;20229;-77
2023/05/04 22:05:20;;;;;;;13.20;6.97;;;9.70;95.00;;;;;;10117169;29;20276;-77
2023/05/04 22:10:42;;;;;;;7.37;3.03;;;9.70;1.00;;;;;;10115304;29;20213;-77
2023/05/04 22:16:03;;;;;;;10.70;4.23;;;9.60;1.00;;;;;;10116251;29;20197;-78
2023/05/04 22:21:25;;;;;;;8.07;3.67;;;9.50;1.00;;;;;;10115790;29;20302;-77
2023/05/04 22:26:46;;;;;;;6.93;3.80;;;9.50;1.00;;;;;;10119589;29;20276;-78
2023/05/04 22:32:07;;;;;;;4.37;3.23;;;9.40;1.00;;;;;;10123559;29;20235;-78
2023/05/04 22:37:29;;;;;;;7.60;2.90;;;9.40;1.00;;;;;;10122437;29;20213;-78
2023/05/04 22:42:50;;;;;;;4.13;2.20;;;9.50;8.90;;;;;;10123256;29;20243;-79
2023/05/04 22:48:12;;;;;;;6.77;2.20;;;9.40;38.60;;;;;;10123137;29;20193;-79
2023/05/04 22:53:34;;;;;;;3.30;1.90;;;9.30;1.00;;;;;;10121827;29;20207;-79
2023/05/04 22:58:55;;;;;;;6.03;2.67;;;9.20;1.00;;;;;;10122791;29;20487;-78
2023/05/04 23:04:16;;;;;;;5.40;2.20;;;9.20;91.00;;;;;;10122328;29;20470;-79
2023/05/04 23:09:42;;;;;;;4.37;2.40;;;9.10;97.00;;;;;;10121508;29;20208;-78
2023/05/04 23:15:05;;;;;;;5.73;2.30;;;9.00;97.20;;;;;;10122147;29;20202;-78
2023/05/04 23:20:26;;;;;;;4.83;2.20;;;9.00;97.20;;;;;;10121187;29;20421;-76
2023/05/04 23:25:47;;;;;;;6.93;3.00;;;8.80;96.40;;;;;;10121727;29;20215;-78
2023/05/04 23:31:08;;;;;;;7.00;1.90;;;8.70;97.40;;;;;;10121412;29;20229;-77
2023/05/04 23:36:29;;;;;;;6.57;2.40;;;8.70;97.20;;;;;;10119536;29;20507;-75
2023/05/04 23:41:50;;;;;;;6.07;2.60;;;8.80;97.00;;;;;;10121218;29;20228;-77
2023/05/04 23:47:11;;;;;;;4.23;2.20;;;8.70;96.60;;;;;;10120956;29;20195;-78
2023/05/04 23:52:32;;;;;;;4.70;2.17;;;8.70;96.20;;;;;;10119944;29;20217;-78
2023/05/04 23:57:53;;;;;;;4.07;1.87;;;8.70;95.30;;;;;;10120900;29;20208;-78
